sensor_id;sensor_type;location;lat;lon;timestamp;P1;durP1;ratioP1;P2;durP2;ratioP2
11604;SDS011;5858;43.076;25.626;2023-11-18T00:01:37;13.87;;;12.47;;
11604;SDS011;5858;43.076;25.626;2023-11-18T00:04:17;14.57;;;13.07;;
11604;SDS011;5858;43.076;25.626;2023-11-18T00:06:48;14.63;;;12.77;;
11604;SDS011;5858;43.076;25.626;2023-11-18T00:09:24;13.70;;;12.30;;
11604;SDS011;5858;43.076;25.626;2023-11-18T00:11:58;13.73;;;12.30;;
11604;SDS011;5858;43.076;25.626;2023-11-18T00:14:27;12.87;;;11.57;;
11604;SDS011;5858;43.076;25.626;2023-11-18T00:17:05;11.27;;;10.17;;
11604;SDS011;5858;43.076;25.626;2023-11-18T00:19:35;10.37;;;9.37;;
11604;SDS011;5858;43.076;25.626;2023-11-18T00:22:20;9.93;;;7.63;;
11604;SDS011;5858;43.076;25.626;2023-11-18T00:25:00;6.17;;;5.67;;
11604;SDS011;5858;43.076;25.626;2023-11-18T00:27:48;5.67;;;4.00;;
11604;SDS011;5858;43.076;25.626;2023-11-18T00:30:29;3.20;;;3.00;;
11604;SDS011;5858;43.076;25.626;2023-11-18T00:32:57;3.67;;;2.97;;
11604;SDS011;5858;43.076;25.626;2023-11-18T00:35:27;3.03;;;2.80;;
11604;SDS011;5858;43.076;25.626;2023-11-18T00:38:03;2.63;;;2.43;;
11604;SDS011;5858;43.076;25.626;2023-11-18T00:40:39;2.50;;;2.30;;
11604;SDS011;5858;43.076;25.626;2023-11-18T00:43:20;2.47;;;2.20;;
11604;SDS011;5858;43.076;25.626;2023-11-18T00:45:54;3.00;;;2.47;;
11604;SDS011;5858;43.076;25.626;2023-11-18T00:48:35;2.63;;;2.43;;
11604;SDS011;5858;43.076;25.626;2023-11-18T00:51:19;3.10;;;2.80;;
11604;SDS011;5858;43.076;25.626;2023-11-18T00:53:49;3.03;;;2.77;;
11604;SDS011;5858;43.076;25.626;2023-11-18T00:56:22;3.80;;;3.27;;
11604;SDS011;5858;43.076;25.626;2023-11-18T00:58:58;3.17;;;2.90;;
11604;SDS011;5858;43.076;25.626;2023-11-18T01:01:37;4.20;;;3.60;;
11604;SDS011;5858;43.076;25.626;2023-11-18T01:04:08;4.37;;;4.00;;
11604;SDS011;5858;43.076;25.626;2023-11-18T01:06:41;4.33;;;3.93;;
11604;SDS011;5858;43.076;25.626;2023-11-18T01:09:16;4.50;;;3.80;;
11604;SDS011;5858;43.076;25.626;2023-11-18T01:11:45;4.93;;;4.07;;
11604;SDS011;5858;43.076;25.626;2023-11-18T01:14:15;5.90;;;5.40;;
11604;SDS011;5858;43.076;25.626;2023-11-18T01:16:48;6.03;;;5.47;;
11604;SDS011;5858;43.076;25.626;2023-11-18T01:19:14;5.77;;;5.27;;
11604;SDS011;5858;43.076;25.626;2023-11-18T01:21:43;5.37;;;4.90;;
11604;SDS011;5858;43.076;25.626;2023-11-18T01:24:09;5.87;;;5.17;;
11604;SDS011;5858;43.076;25.626;2023-11-18T01:26:36;5.53;;;5.03;;
11604;SDS011;5858;43.076;25.626;2023-11-18T01:29:03;6.50;;;5.90;;
11604;SDS011;5858;43.076;25.626;2023-11-18T01:31:29;6.53;;;5.97;;
11604;SDS011;5858;43.076;25.626;2023-11-18T01:33:57;6.13;;;5.60;;
11604;SDS011;5858;43.076;25.626;2023-11-18T01:36:23;6.40;;;5.80;;
11604;SDS011;5858;43.076;25.626;2023-11-18T01:38:53;6.43;;;5.83;;
11604;SDS011;5858;43.076;25.626;2023-11-18T01:41:24;7.40;;;6.03;;
11604;SDS011;5858;43.076;25.626;2023-11-18T01:43:57;5.77;;;5.27;;
11604;SDS011;5858;43.076;25.626;2023-11-18T01:46:25;6.80;;;6.20;;
11604;SDS011;5858;43.076;25.626;2023-11-18T01:49:01;6.27;;;5.67;;
11604;SDS011;5858;43.076;25.626;2023-11-18T01:51:41;5.83;;;5.33;;
11604;SDS011;5858;43.076;25.626;2023-11-18T01:54:19;5.93;;;5.33;;
11604;SDS011;5858;43.076;25.626;2023-11-18T01:57:03;5.07;;;4.63;;
11604;SDS011;5858;43.076;25.626;2023-11-18T01:59:31;5.53;;;5.10;;
11604;SDS011;5858;43.076;25.626;2023-11-18T02:02:05;4.73;;;4.33;;
11604;SDS011;5858;43.076;25.626;2023-11-18T02:04:32;5.70;;;5.20;;
11604;SDS011;5858;43.076;25.626;2023-11-18T02:07:01;5.77;;;5.17;;
11604;SDS011;5858;43.076;25.626;2023-11-18T02:09:35;5.67;;;5.10;;
11604;SDS011;5858;43.076;25.626;2023-11-18T02:12:06;5.10;;;4.57;;
11604;SDS011;5858;43.076;25.626;2023-11-18T02:14:38;6.17;;;5.47;;
11604;SDS011;5858;43.076;25.626;2023-11-18T02:17:06;5.20;;;4.70;;
11604;SDS011;5858;43.076;25.626;2023-11-18T02:19:41;6.23;;;4.33;;
11604;SDS011;5858;43.076;25.626;2023-11-18T02:22:11;4.77;;;4.37;;
11604;SDS011;5858;43.076;25.626;2023-11-18T02:24:50;4.60;;;4.13;;
11604;SDS011;5858;43.076;25.626;2023-11-18T02:27:25;3.90;;;3.60;;
11604;SDS011;5858;43.076;25.626;2023-11-18T02:30:12;3.30;;;3.00;;
11604;SDS011;5858;43.076;25.626;2023-11-18T02:32:58;3.10;;;2.90;;
11604;SDS011;5858;43.076;25.626;2023-11-18T02:35:51;3.27;;;2.97;;
11604;SDS011;5858;43.076;25.626;2023-11-18T02:38:41;2.73;;;2.53;;
11604;SDS011;5858;43.076;25.626;2023-11-18T02:41:23;4.80;;;3.07;;
11604;SDS011;5858;43.076;25.626;2023-11-18T02:46:46;2.70;;;2.50;;
11604;SDS011;5858;43.076;25.626;2023-11-18T02:49:24;3.17;;;2.87;;
11604;SDS011;5858;43.076;25.626;2023-11-18T02:52:16;2.70;;;2.50;;
11604;SDS011;5858;43.076;25.626;2023-11-18T02:54:47;2.43;;;2.23;;
11604;SDS011;5858;43.076;25.626;2023-11-18T02:57:13;3.30;;;2.20;;
11604;SDS011;5858;43.076;25.626;2023-11-18T02:59:41;2.50;;;2.30;;
11604;SDS011;5858;43.076;25.626;2023-11-18T03:02:10;2.60;;;2.40;;
11604;SDS011;5858;43.076;25.626;2023-11-18T03:04:36;3.43;;;3.13;;
11604;SDS011;5858;43.076;25.626;2023-11-18T03:07:03;3.20;;;2.90;;
11604;SDS011;5858;43.076;25.626;2023-11-18T03:09:29;2.63;;;2.43;;
11604;SDS011;5858;43.076;25.626;2023-11-18T03:11:59;3.37;;;2.53;;
11604;SDS011;5858;43.076;25.626;2023-11-18T03:14:26;2.50;;;2.30;;
11604;SDS011;5858;43.076;25.626;2023-11-18T03:16:53;2.67;;;2.30;;
11604;SDS011;5858;43.076;25.626;2023-11-18T03:19:22;2.37;;;2.13;;
11604;SDS011;5858;43.076;25.626;2023-11-18T03:21:50;2.57;;;1.90;;
11604;SDS011;5858;43.076;25.626;2023-11-18T03:24:18;2.13;;;1.93;;
11604;SDS011;5858;43.076;25.626;2023-11-18T03:26:44;1.70;;;1.60;;
11604;SDS011;5858;43.076;25.626;2023-11-18T03:29:11;1.40;;;1.30;;
11604;SDS011;5858;43.076;25.626;2023-11-18T03:31:38;5.33;;;1.93;;
11604;SDS011;5858;43.076;25.626;2023-11-18T03:34:05;3.43;;;1.90;;
11604;SDS011;5858;43.076;25.626;2023-11-18T03:36:33;1.80;;;1.63;;
11604;SDS011;5858;43.076;25.626;2023-11-18T03:38:59;1.53;;;1.43;;
11604;SDS011;5858;43.076;25.626;2023-11-18T03:41:26;1.43;;;1.33;;
11604;SDS011;5858;43.076;25.626;2023-11-18T03:43:53;1.43;;;1.33;;
11604;SDS011;5858;43.076;25.626;2023-11-18T03:46:19;2.63;;;1.43;;
11604;SDS011;5858;43.076;25.626;2023-11-18T03:48:46;1.63;;;1.53;;
11604;SDS011;5858;43.076;25.626;2023-11-18T03:51:12;1.17;;;1.07;;
11604;SDS011;5858;43.076;25.626;2023-11-18T03:53:43;1.50;;;1.20;;
11604;SDS011;5858;43.076;25.626;2023-11-18T03:56:09;1.77;;;1.57;;
11604;SDS011;5858;43.076;25.626;2023-11-18T03:58:36;1.63;;;1.53;;
11604;SDS011;5858;43.076;25.626;2023-11-18T04:01:03;1.73;;;1.57;;
11604;SDS011;5858;43.076;25.626;2023-11-18T04:03:29;1.17;;;1.07;;
11604;SDS011;5858;43.076;25.626;2023-11-18T04:05:56;1.53;;;1.40;;
11604;SDS011;5858;43.076;25.626;2023-11-18T04:08:23;1.27;;;1.10;;
11604;SDS011;5858;43.076;25.626;2023-11-18T04:10:52;1.30;;;1.20;;
11604;SDS011;5858;43.076;25.626;2023-11-18T04:13:18;1.50;;;1.40;;
11604;SDS011;5858;43.076;25.626;2023-11-18T04:15:45;1.30;;;1.20;;
11604;SDS011;5858;43.076;25.626;2023-11-18T04:18:11;1.10;;;1.00;;
11604;SDS011;5858;43.076;25.626;2023-11-18T04:20:38;0.67;;;0.67;;
11604;SDS011;5858;43.076;25.626;2023-11-18T04:23:05;1.27;;;0.97;;
11604;SDS011;5858;43.076;25.626;2023-11-18T04:25:31;0.90;;;0.90;;
11604;SDS011;5858;43.076;25.626;2023-11-18T04:27:59;1.20;;;1.00;;
11604;SDS011;5858;43.076;25.626;2023-11-18T04:30:26;0.93;;;0.90;;
11604;SDS011;5858;43.076;25.626;2023-11-18T04:32:52;0.77;;;0.70;;
11604;SDS011;5858;43.076;25.626;2023-11-18T04:35:19;0.93;;;0.83;;
11604;SDS011;5858;43.076;25.626;2023-11-18T04:37:47;0.80;;;0.80;;
11604;SDS011;5858;43.076;25.626;2023-11-18T04:40:14;3.33;;;1.00;;
11604;SDS011;5858;43.076;25.626;2023-11-18T04:42:41;0.60;;;0.60;;
11604;SDS011;5858;43.076;25.626;2023-11-18T04:45:09;1.00;;;0.83;;
11604;SDS011;5858;43.076;25.626;2023-11-18T04:47:36;0.70;;;0.70;;
11604;SDS011;5858;43.076;25.626;2023-11-18T04:50:04;0.60;;;0.60;;
11604;SDS011;5858;43.076;25.626;2023-11-18T04:52:30;0.87;;;0.87;;
11604;SDS011;5858;43.076;25.626;2023-11-18T04:54:59;0.80;;;0.80;;
11604;SDS011;5858;43.076;25.626;2023-11-18T04:57:26;2.30;;;0.90;;
11604;SDS011;5858;43.076;25.626;2023-11-18T04:59:53;0.80;;;0.80;;
11604;SDS011;5858;43.076;25.626;2023-11-18T05:02:21;0.80;;;0.80;;
11604;SDS011;5858;43.076;25.626;2023-11-18T05:04:47;0.70;;;0.70;;
11604;SDS011;5858;43.076;25.626;2023-11-18T05:07:14;2.47;;;0.90;;
11604;SDS011;5858;43.076;25.626;2023-11-18T05:09:41;0.80;;;0.80;;
11604;SDS011;5858;43.076;25.626;2023-11-18T05:12:07;1.00;;;0.73;;
11604;SDS011;5858;43.076;25.626;2023-11-18T05:14:34;0.80;;;0.80;;
11604;SDS011;5858;43.076;25.626;2023-11-18T05:17:01;0.80;;;0.80;;
11604;SDS011;5858;43.076;25.626;2023-11-18T05:19:31;0.93;;;0.93;;
11604;SDS011;5858;43.076;25.626;2023-11-18T05:21:57;0.90;;;0.90;;
11604;SDS011;5858;43.076;25.626;2023-11-18T05:24:25;1.33;;;1.00;;
11604;SDS011;5858;43.076;25.626;2023-11-18T05:26:51;1.00;;;0.90;;
11604;SDS011;5858;43.076;25.626;2023-11-18T05:29:18;1.10;;;1.00;;
11604;SDS011;5858;43.076;25.626;2023-11-18T05:31:46;1.27;;;0.90;;
11604;SDS011;5858;43.076;25.626;2023-11-18T05:34:12;1.10;;;0.73;;
11604;SDS011;5858;43.076;25.626;2023-11-18T05:36:40;1.07;;;0.97;;
11604;SDS011;5858;43.076;25.626;2023-11-18T05:39:07;1.60;;;1.00;;
11604;SDS011;5858;43.076;25.626;2023-11-18T05:41:34;1.63;;;1.00;;
11604;SDS011;5858;43.076;25.626;2023-11-18T05:44:06;0.80;;;0.80;;
11604;SDS011;5858;43.076;25.626;2023-11-18T05:46:34;2.57;;;1.10;;
11604;SDS011;5858;43.076;25.626;2023-11-18T05:49:01;0.50;;;0.50;;
11604;SDS011;5858;43.076;25.626;2023-11-18T05:51:30;0.90;;;0.63;;
11604;SDS011;5858;43.076;25.626;2023-11-18T05:53:58;0.83;;;0.80;;
11604;SDS011;5858;43.076;25.626;2023-11-18T05:56:25;0.80;;;0.80;;
11604;SDS011;5858;43.076;25.626;2023-11-18T05:58:51;0.67;;;0.67;;
11604;SDS011;5858;43.076;25.626;2023-11-18T06:01:19;2.30;;;0.60;;
11604;SDS011;5858;43.076;25.626;2023-11-18T06:03:46;0.70;;;0.70;;
11604;SDS011;5858;43.076;25.626;2023-11-18T06:06:13;2.10;;;0.60;;
11604;SDS011;5858;43.076;25.626;2023-11-18T06:08:41;0.70;;;0.70;;
11604;SDS011;5858;43.076;25.626;2023-11-18T06:11:09;0.50;;;0.50;;
11604;SDS011;5858;43.076;25.626;2023-11-18T06:13:44;0.77;;;0.70;;
11604;SDS011;5858;43.076;25.626;2023-11-18T06:16:15;4.90;;;0.60;;
11604;SDS011;5858;43.076;25.626;2023-11-18T06:18:42;0.70;;;0.67;;
11604;SDS011;5858;43.076;25.626;2023-11-18T06:21:11;1.37;;;0.70;;
11604;SDS011;5858;43.076;25.626;2023-11-18T06:23:39;0.60;;;0.50;;
11604;SDS011;5858;43.076;25.626;2023-11-18T06:26:06;1.27;;;0.70;;
11604;SDS011;5858;43.076;25.626;2023-11-18T06:28:37;1.03;;;0.50;;
11604;SDS011;5858;43.076;25.626;2023-11-18T06:31:04;1.50;;;0.70;;
11604;SDS011;5858;43.076;25.626;2023-11-18T06:33:35;1.47;;;1.13;;
11604;SDS011;5858;43.076;25.626;2023-11-18T06:36:02;0.90;;;0.80;;
11604;SDS011;5858;43.076;25.626;2023-11-18T06:38:29;2.83;;;0.60;;
11604;SDS011;5858;43.076;25.626;2023-11-18T06:40:56;0.63;;;0.50;;
11604;SDS011;5858;43.076;25.626;2023-11-18T06:43:25;1.13;;;0.70;;
11604;SDS011;5858;43.076;25.626;2023-11-18T06:46:02;1.17;;;0.67;;
11604;SDS011;5858;43.076;25.626;2023-11-18T06:48:29;0.77;;;0.60;;
11604;SDS011;5858;43.076;25.626;2023-11-18T06:50:57;0.40;;;0.40;;
11604;SDS011;5858;43.076;25.626;2023-11-18T06:53:24;0.60;;;0.60;;
11604;SDS011;5858;43.076;25.626;2023-11-18T06:55:51;0.50;;;0.50;;
11604;SDS011;5858;43.076;25.626;2023-11-18T06:58:18;0.90;;;0.60;;
11604;SDS011;5858;43.076;25.626;2023-11-18T07:00:45;0.43;;;0.40;;
11604;SDS011;5858;43.076;25.626;2023-11-18T07:03:14;0.73;;;0.50;;
11604;SDS011;5858;43.076;25.626;2023-11-18T07:05:41;0.40;;;0.40;;
11604;SDS011;5858;43.076;25.626;2023-11-18T07:08:09;0.70;;;0.50;;
11604;SDS011;5858;43.076;25.626;2023-11-18T07:10:38;0.70;;;0.70;;
11604;SDS011;5858;43.076;25.626;2023-11-18T07:13:04;0.60;;;0.60;;
11604;SDS011;5858;43.076;25.626;2023-11-18T07:15:32;3.13;;;0.60;;
11604;SDS011;5858;43.076;25.626;2023-11-18T07:17:59;1.47;;;0.60;;
11604;SDS011;5858;43.076;25.626;2023-11-18T07:20:28;0.60;;;0.60;;
11604;SDS011;5858;43.076;25.626;2023-11-18T07:22:54;1.17;;;0.90;;
11604;SDS011;5858;43.076;25.626;2023-11-18T07:25:21;1.40;;;1.00;;
11604;SDS011;5858;43.076;25.626;2023-11-18T07:27:48;1.57;;;0.70;;
11604;SDS011;5858;43.076;25.626;2023-11-18T07:30:17;8.13;;;0.90;;
11604;SDS011;5858;43.076;25.626;2023-11-18T07:32:45;0.50;;;0.43;;
11604;SDS011;5858;43.076;25.626;2023-11-18T07:35:11;0.77;;;0.70;;
11604;SDS011;5858;43.076;25.626;2023-11-18T07:37:40;0.40;;;0.40;;
11604;SDS011;5858;43.076;25.626;2023-11-18T07:40:07;0.70;;;0.60;;
11604;SDS011;5858;43.076;25.626;2023-11-18T07:42:37;0.87;;;0.60;;
11604;SDS011;5858;43.076;25.626;2023-11-18T07:45:04;1.07;;;0.50;;
11604;SDS011;5858;43.076;25.626;2023-11-18T07:47:42;0.60;;;0.50;;
11604;SDS011;5858;43.076;25.626;2023-11-18T07:50:10;0.40;;;0.40;;
11604;SDS011;5858;43.076;25.626;2023-11-18T07:52:40;0.63;;;0.50;;
11604;SDS011;5858;43.076;25.626;2023-11-18T07:55:07;1.30;;;0.47;;
11604;SDS011;5858;43.076;25.626;2023-11-18T07:57:38;1.17;;;0.63;;
11604;SDS011;5858;43.076;25.626;2023-11-18T08:00:05;0.57;;;0.50;;
11604;SDS011;5858;43.076;25.626;2023-11-18T08:02:34;0.50;;;0.50;;
11604;SDS011;5858;43.076;25.626;2023-11-18T08:05:04;0.60;;;0.60;;
11604;SDS011;5858;43.076;25.626;2023-11-18T08:07:33;1.60;;;0.60;;
11604;SDS011;5858;43.076;25.626;2023-11-18T08:12:54;1.10;;;0.93;;
11604;SDS011;5858;43.076;25.626;2023-11-18T08:15:24;0.90;;;0.50;;
11604;SDS011;5858;43.076;25.626;2023-11-18T08:18:08;1.00;;;0.60;;
11604;SDS011;5858;43.076;25.626;2023-11-18T08:20:38;0.90;;;0.70;;
11604;SDS011;5858;43.076;25.626;2023-11-18T08:23:04;1.90;;;0.50;;
11604;SDS011;5858;43.076;25.626;2023-11-18T08:25:33;0.40;;;0.40;;
11604;SDS011;5858;43.076;25.626;2023-11-18T08:28:00;0.57;;;0.50;;
11604;SDS011;5858;43.076;25.626;2023-11-18T08:30:30;0.60;;;0.60;;
11604;SDS011;5858;43.076;25.626;2023-11-18T08:32:59;1.80;;;0.60;;
11604;SDS011;5858;43.076;25.626;2023-11-18T08:35:28;1.10;;;0.70;;
11604;SDS011;5858;43.076;25.626;2023-11-18T08:38:01;0.80;;;0.80;;
11604;SDS011;5858;43.076;25.626;2023-11-18T08:40:29;0.67;;;0.67;;
11604;SDS011;5858;43.076;25.626;2023-11-18T08:42:57;0.63;;;0.63;;
11604;SDS011;5858;43.076;25.626;2023-11-18T08:45:24;0.93;;;0.60;;
11604;SDS011;5858;43.076;25.626;2023-11-18T08:47:53;0.50;;;0.50;;
11604;SDS011;5858;43.076;25.626;2023-11-18T08:50:20;0.90;;;0.60;;
11604;SDS011;5858;43.076;25.626;2023-11-18T08:52:49;4.07;;;0.70;;
11604;SDS011;5858;43.076;25.626;2023-11-18T08:55:19;1.47;;;0.60;;
11604;SDS011;5858;43.076;25.626;2023-11-18T08:57:46;1.97;;;0.60;;
11604;SDS011;5858;43.076;25.626;2023-11-18T09:00:25;0.70;;;0.50;;
11604;SDS011;5858;43.076;25.626;2023-11-18T09:03:11;1.13;;;0.60;;
11604;SDS011;5858;43.076;25.626;2023-11-18T09:05:43;1.00;;;0.70;;
11604;SDS011;5858;43.076;25.626;2023-11-18T09:08:22;1.03;;;0.57;;
11604;SDS011;5858;43.076;25.626;2023-11-18T09:10:48;0.60;;;0.57;;
11604;SDS011;5858;43.076;25.626;2023-11-18T09:13:19;1.93;;;0.80;;
11604;SDS011;5858;43.076;25.626;2023-11-18T09:15:47;1.70;;;1.57;;
11604;SDS011;5858;43.076;25.626;2023-11-18T09:18:14;0.93;;;0.73;;
11604;SDS011;5858;43.076;25.626;2023-11-18T09:20:43;0.40;;;0.40;;
11604;SDS011;5858;43.076;25.626;2023-11-18T09:23:09;0.73;;;0.50;;
11604;SDS011;5858;43.076;25.626;2023-11-18T09:25:36;1.27;;;0.50;;
11604;SDS011;5858;43.076;25.626;2023-11-18T09:28:02;0.50;;;0.50;;
11604;SDS011;5858;43.076;25.626;2023-11-18T09:30:29;1.20;;;0.63;;
11604;SDS011;5858;43.076;25.626;2023-11-18T09:33:01;1.40;;;0.90;;
11604;SDS011;5858;43.076;25.626;2023-11-18T09:35:31;0.93;;;0.67;;
11604;SDS011;5858;43.076;25.626;2023-11-18T09:37:59;0.50;;;0.40;;
11604;SDS011;5858;43.076;25.626;2023-11-18T09:40:31;1.30;;;0.50;;
11604;SDS011;5858;43.076;25.626;2023-11-18T09:42:59;0.60;;;0.43;;
11604;SDS011;5858;43.076;25.626;2023-11-18T09:45:27;0.60;;;0.60;;
11604;SDS011;5858;43.076;25.626;2023-11-18T09:48:02;1.93;;;0.70;;
11604;SDS011;5858;43.076;25.626;2023-11-18T09:50:34;0.60;;;0.50;;
11604;SDS011;5858;43.076;25.626;2023-11-18T09:53:03;1.63;;;0.70;;
11604;SDS011;5858;43.076;25.626;2023-11-18T09:55:37;2.93;;;0.70;;
11604;SDS011;5858;43.076;25.626;2023-11-18T09:58:06;1.37;;;0.70;;
11604;SDS011;5858;43.076;25.626;2023-11-18T10:00:38;0.60;;;0.47;;
11604;SDS011;5858;43.076;25.626;2023-11-18T10:03:06;1.63;;;0.53;;
11604;SDS011;5858;43.076;25.626;2023-11-18T10:05:36;1.13;;;0.67;;
11604;SDS011;5858;43.076;25.626;2023-11-18T10:08:07;1.50;;;0.90;;
11604;SDS011;5858;43.076;25.626;2023-11-18T10:10:35;1.97;;;1.33;;
11604;SDS011;5858;43.076;25.626;2023-11-18T10:13:02;0.63;;;0.53;;
11604;SDS011;5858;43.076;25.626;2023-11-18T10:15:33;6.97;;;3.57;;
11604;SDS011;5858;43.076;25.626;2023-11-18T10:18:00;2.63;;;1.60;;
11604;SDS011;5858;43.076;25.626;2023-11-18T10:20:47;2.47;;;1.23;;
11604;SDS011;5858;43.076;25.626;2023-11-18T10:23:16;1.37;;;1.00;;
11604;SDS011;5858;43.076;25.626;2023-11-18T10:25:47;0.50;;;0.50;;
11604;SDS011;5858;43.076;25.626;2023-11-18T10:28:26;0.63;;;0.57;;
11604;SDS011;5858;43.076;25.626;2023-11-18T10:30:53;3.33;;;0.83;;
11604;SDS011;5858;43.076;25.626;2023-11-18T10:33:22;0.60;;;0.60;;
11604;SDS011;5858;43.076;25.626;2023-11-18T10:35:55;0.90;;;0.70;;
11604;SDS011;5858;43.076;25.626;2023-11-18T10:38:22;0.97;;;0.63;;
11604;SDS011;5858;43.076;25.626;2023-11-18T10:40:54;3.23;;;0.80;;
11604;SDS011;5858;43.076;25.626;2023-11-18T10:43:21;0.77;;;0.70;;
11604;SDS011;5858;43.076;25.626;2023-11-18T10:45:50;3.63;;;0.73;;
11604;SDS011;5858;43.076;25.626;2023-11-18T10:48:17;0.80;;;0.67;;
11604;SDS011;5858;43.076;25.626;2023-11-18T10:50:46;0.90;;;0.70;;
11604;SDS011;5858;43.076;25.626;2023-11-18T10:53:18;0.77;;;0.60;;
11604;SDS011;5858;43.076;25.626;2023-11-18T10:55:49;2.83;;;0.73;;
11604;SDS011;5858;43.076;25.626;2023-11-18T10:58:16;1.03;;;0.87;;
11604;SDS011;5858;43.076;25.626;2023-11-18T11:00:52;3.20;;;1.10;;
11604;SDS011;5858;43.076;25.626;2023-11-18T11:03:25;1.43;;;0.87;;
11604;SDS011;5858;43.076;25.626;2023-11-18T11:05:58;3.10;;;0.90;;
11604;SDS011;5858;43.076;25.626;2023-11-18T11:08:26;1.10;;;0.93;;
11604;SDS011;5858;43.076;25.626;2023-11-18T11:10:56;1.00;;;0.90;;
11604;SDS011;5858;43.076;25.626;2023-11-18T11:13:25;0.93;;;0.57;;
11604;SDS011;5858;43.076;25.626;2023-11-18T11:15:54;0.80;;;0.80;;
11604;SDS011;5858;43.076;25.626;2023-11-18T11:18:21;1.43;;;1.20;;
11604;SDS011;5858;43.076;25.626;2023-11-18T11:20:55;1.63;;;1.10;;
11604;SDS011;5858;43.076;25.626;2023-11-18T11:23:34;1.50;;;1.10;;
11604;SDS011;5858;43.076;25.626;2023-11-18T11:26:12;2.00;;;1.00;;
11604;SDS011;5858;43.076;25.626;2023-11-18T11:28:40;1.00;;;0.90;;
11604;SDS011;5858;43.076;25.626;2023-11-18T11:31:12;0.80;;;0.80;;
11604;SDS011;5858;43.076;25.626;2023-11-18T11:33:42;6.33;;;1.53;;
11604;SDS011;5858;43.076;25.626;2023-11-18T11:36:11;1.63;;;1.00;;
11604;SDS011;5858;43.076;25.626;2023-11-18T11:38:49;1.27;;;0.93;;
11604;SDS011;5858;43.076;25.626;2023-11-18T11:41:16;1.93;;;1.33;;
11604;SDS011;5858;43.076;25.626;2023-11-18T11:43:51;1.10;;;1.00;;
11604;SDS011;5858;43.076;25.626;2023-11-18T11:46:23;1.13;;;0.90;;
11604;SDS011;5858;43.076;25.626;2023-11-18T11:49:02;2.13;;;1.00;;
11604;SDS011;5858;43.076;25.626;2023-11-18T11:51:46;2.57;;;1.43;;
11604;SDS011;5858;43.076;25.626;2023-11-18T11:54:26;1.13;;;0.90;;
11604;SDS011;5858;43.076;25.626;2023-11-18T11:57:14;1.00;;;0.80;;
11604;SDS011;5858;43.076;25.626;2023-11-18T11:59:54;0.80;;;0.70;;
11604;SDS011;5858;43.076;25.626;2023-11-18T12:02:21;0.97;;;0.87;;
11604;SDS011;5858;43.076;25.626;2023-11-18T12:04:50;2.37;;;0.83;;
11604;SDS011;5858;43.076;25.626;2023-11-18T12:07:20;1.70;;;0.97;;
11604;SDS011;5858;43.076;25.626;2023-11-18T12:09:50;2.77;;;1.10;;
11604;SDS011;5858;43.076;25.626;2023-11-18T12:12:20;1.67;;;1.30;;
11604;SDS011;5858;43.076;25.626;2023-11-18T12:14:51;1.33;;;1.23;;
11604;SDS011;5858;43.076;25.626;2023-11-18T12:17:21;1.73;;;1.20;;
11604;SDS011;5858;43.076;25.626;2023-11-18T12:19:53;3.30;;;2.07;;
11604;SDS011;5858;43.076;25.626;2023-11-18T12:22:25;1.70;;;1.60;;
11604;SDS011;5858;43.076;25.626;2023-11-18T12:27:44;4.37;;;1.83;;
11604;SDS011;5858;43.076;25.626;2023-11-18T12:33:04;1.47;;;1.37;;
11604;SDS011;5858;43.076;25.626;2023-11-18T12:35:35;2.60;;;1.37;;
11604;SDS011;5858;43.076;25.626;2023-11-18T12:38:15;1.50;;;1.40;;
11604;SDS011;5858;43.076;25.626;2023-11-18T12:40:52;1.57;;;1.47;;
11604;SDS011;5858;43.076;25.626;2023-11-18T12:43:26;1.70;;;1.60;;
11604;SDS011;5858;43.076;25.626;2023-11-18T12:49:10;1.80;;;1.70;;
11604;SDS011;5858;43.076;25.626;2023-11-18T12:51:41;2.40;;;1.80;;
11604;SDS011;5858;43.076;25.626;2023-11-18T12:54:08;2.90;;;1.60;;
11604;SDS011;5858;43.076;25.626;2023-11-18T12:56:39;1.90;;;1.70;;
11604;SDS011;5858;43.076;25.626;2023-11-18T12:59:11;2.77;;;2.00;;
11604;SDS011;5858;43.076;25.626;2023-11-18T13:01:38;3.77;;;1.67;;
11604;SDS011;5858;43.076;25.626;2023-11-18T13:04:07;2.20;;;2.10;;
11604;SDS011;5858;43.076;25.626;2023-11-18T13:06:36;1.93;;;1.80;;
11604;SDS011;5858;43.076;25.626;2023-11-18T13:09:06;2.00;;;1.80;;
11604;SDS011;5858;43.076;25.626;2023-11-18T13:11:35;2.10;;;1.90;;
11604;SDS011;5858;43.076;25.626;2023-11-18T13:14:06;2.07;;;1.87;;
11604;SDS011;5858;43.076;25.626;2023-11-18T13:16:35;2.03;;;1.90;;
11604;SDS011;5858;43.076;25.626;2023-11-18T13:19:01;2.00;;;1.90;;
11604;SDS011;5858;43.076;25.626;2023-11-18T13:21:30;2.00;;;1.80;;
11604;SDS011;5858;43.076;25.626;2023-11-18T13:23:57;2.00;;;1.90;;
11604;SDS011;5858;43.076;25.626;2023-11-18T13:26:23;6.43;;;2.67;;
11604;SDS011;5858;43.076;25.626;2023-11-18T13:28:50;2.20;;;2.00;;
11604;SDS011;5858;43.076;25.626;2023-11-18T13:31:17;2.13;;;1.93;;
11604;SDS011;5858;43.076;25.626;2023-11-18T13:33:45;1.80;;;1.70;;
11604;SDS011;5858;43.076;25.626;2023-11-18T13:36:13;1.70;;;1.60;;
11604;SDS011;5858;43.076;25.626;2023-11-18T13:38:40;2.67;;;2.47;;
11604;SDS011;5858;43.076;25.626;2023-11-18T13:41:11;4.63;;;2.03;;
11604;SDS011;5858;43.076;25.626;2023-11-18T13:43:44;2.23;;;2.00;;
11604;SDS011;5858;43.076;25.626;2023-11-18T13:46:12;3.63;;;2.43;;
11604;SDS011;5858;43.076;25.626;2023-11-18T13:48:39;2.10;;;1.90;;
11604;SDS011;5858;43.076;25.626;2023-11-18T13:51:11;2.00;;;1.80;;
11604;SDS011;5858;43.076;25.626;2023-11-18T13:53:40;3.50;;;1.80;;
11604;SDS011;5858;43.076;25.626;2023-11-18T13:56:09;2.00;;;1.80;;
11604;SDS011;5858;43.076;25.626;2023-11-18T13:58:35;1.93;;;1.70;;
11604;SDS011;5858;43.076;25.626;2023-11-18T14:01:04;2.57;;;1.57;;
11604;SDS011;5858;43.076;25.626;2023-11-18T14:03:34;2.37;;;2.03;;
11604;SDS011;5858;43.076;25.626;2023-11-18T14:06:02;2.90;;;1.90;;
11604;SDS011;5858;43.076;25.626;2023-11-18T14:08:30;2.10;;;1.90;;
11604;SDS011;5858;43.076;25.626;2023-11-18T14:10:59;2.77;;;2.23;;
11604;SDS011;5858;43.076;25.626;2023-11-18T14:13:40;2.53;;;2.33;;
11604;SDS011;5858;43.076;25.626;2023-11-18T14:16:09;1.87;;;1.60;;
11604;SDS011;5858;43.076;25.626;2023-11-18T14:18:37;2.40;;;2.20;;
11604;SDS011;5858;43.076;25.626;2023-11-18T14:21:06;3.10;;;2.30;;
11604;SDS011;5858;43.076;25.626;2023-11-18T14:23:34;3.10;;;2.33;;
11604;SDS011;5858;43.076;25.626;2023-11-18T14:26:02;3.40;;;2.00;;
11604;SDS011;5858;43.076;25.626;2023-11-18T14:28:41;4.00;;;2.20;;
11604;SDS011;5858;43.076;25.626;2023-11-18T14:31:24;2.03;;;1.87;;
11604;SDS011;5858;43.076;25.626;2023-11-18T14:37:06;2.50;;;2.30;;
11604;SDS011;5858;43.076;25.626;2023-11-18T14:39:35;2.60;;;2.23;;
11604;SDS011;5858;43.076;25.626;2023-11-18T14:42:11;2.23;;;2.03;;
11604;SDS011;5858;43.076;25.626;2023-11-18T14:44:38;2.63;;;1.70;;
11604;SDS011;5858;43.076;25.626;2023-11-18T14:47:14;3.30;;;2.30;;
11604;SDS011;5858;43.076;25.626;2023-11-18T14:49:42;2.07;;;1.93;;
11604;SDS011;5858;43.076;25.626;2023-11-18T14:52:27;2.17;;;1.97;;
11604;SDS011;5858;43.076;25.626;2023-11-18T14:58:10;2.67;;;2.30;;
11604;SDS011;5858;43.076;25.626;2023-11-18T15:00:47;2.70;;;2.40;;
11604;SDS011;5858;43.076;25.626;2023-11-18T15:03:17;1.90;;;1.80;;
11604;SDS011;5858;43.076;25.626;2023-11-18T15:05:44;2.80;;;2.50;;
11604;SDS011;5858;43.076;25.626;2023-11-18T15:10:52;2.87;;;2.33;;
11604;SDS011;5858;43.076;25.626;2023-11-18T15:16:06;2.60;;;2.37;;
11604;SDS011;5858;43.076;25.626;2023-11-18T15:18:33;4.70;;;3.10;;
11604;SDS011;5858;43.076;25.626;2023-11-18T15:21:00;3.07;;;2.53;;
11604;SDS011;5858;43.076;25.626;2023-11-18T15:23:27;3.50;;;3.20;;
11604;SDS011;5858;43.076;25.626;2023-11-18T15:25:54;2.70;;;2.50;;
11604;SDS011;5858;43.076;25.626;2023-11-18T15:28:23;3.03;;;2.73;;
11604;SDS011;5858;43.076;25.626;2023-11-18T15:30:53;2.80;;;2.60;;
11604;SDS011;5858;43.076;25.626;2023-11-18T15:33:21;3.43;;;3.10;;